sensor_id;sensor_type;location;lat;lon;timestamp;P1;durP1;ratioP1;P2;durP2;ratioP2
78336;SDS011;67610;51.588;7.002;2023-04-24T00:01:29;2.20;;;1.40;;
78336;SDS011;67610;51.588;7.002;2023-04-24T00:03:55;2.25;;;1.30;;
78336;SDS011;67610;51.588;7.002;2023-04-24T00:06:25;2.10;;;1.40;;
78336;SDS011;67610;51.588;7.002;2023-04-24T00:08:58;3.30;;;1.65;;
78336;SDS011;67610;51.588;7.002;2023-04-24T00:11:25;3.30;;;1.70;;
78336;SDS011;67610;51.588;7.002;2023-04-24T00:13:51;2.88;;;1.70;;
78336;SDS011;67610;51.588;7.002;2023-04-24T00:16:18;3.45;;;1.70;;
78336;SDS011;67610;51.588;7.002;2023-04-24T00:18:44;3.97;;;1.60;;
78336;SDS011;67610;51.588;7.002;2023-04-24T00:21:10;2.90;;;1.58;;
78336;SDS011;67610;51.588;7.002;2023-04-24T00:23:35;3.35;;;1.60;;
78336;SDS011;67610;51.588;7.002;2023-04-24T00:26:01;2.83;;;1.60;;
78336;SDS011;67610;51.588;7.002;2023-04-24T00:28:27;2.40;;;1.50;;
78336;SDS011;67610;51.588;7.002;2023-04-24T00:30:52;2.22;;;1.40;;
78336;SDS011;67610;51.588;7.002;2023-04-24T00:33:19;2.42;;;1.58;;
78336;SDS011;67610;51.588;7.002;2023-04-24T00:35:45;1.80;;;1.30;;
78336;SDS011;67610;51.588;7.002;2023-04-24T00:38:10;1.95;;;1.50;;
78336;SDS011;67610;51.588;7.002;2023-04-24T00:40:36;2.53;;;1.23;;
78336;SDS011;67610;51.588;7.002;2023-04-24T00:43:01;3.15;;;1.40;;
78336;SDS011;67610;51.588;7.002;2023-04-24T00:45:27;2.47;;;1.40;;
78336;SDS011;67610;51.588;7.002;2023-04-24T00:47:52;3.03;;;1.60;;
78336;SDS011;67610;51.588;7.002;2023-04-24T00:50:18;3.08;;;1.60;;
78336;SDS011;67610;51.588;7.002;2023-04-24T00:52:46;2.60;;;1.58;;
78336;SDS011;67610;51.588;7.002;2023-04-24T00:55:13;2.70;;;1.60;;
78336;SDS011;67610;51.588;7.002;2023-04-24T00:57:38;3.03;;;1.75;;
78336;SDS011;67610;51.588;7.002;2023-04-24T01:00:05;2.92;;;1.92;;
78336;SDS011;67610;51.588;7.002;2023-04-24T01:02:35;3.10;;;1.88;;
78336;SDS011;67610;51.588;7.002;2023-04-24T01:05:07;3.65;;;2.00;;
78336;SDS011;67610;51.588;7.002;2023-04-24T01:07:33;3.00;;;1.90;;
78336;SDS011;67610;51.588;7.002;2023-04-24T01:09:59;3.25;;;2.20;;
78336;SDS011;67610;51.588;7.002;2023-04-24T01:12:25;3.03;;;2.10;;
78336;SDS011;67610;51.588;7.002;2023-04-24T01:14:50;3.83;;;2.22;;
78336;SDS011;67610;51.588;7.002;2023-04-24T01:17:17;3.42;;;2.05;;
78336;SDS011;67610;51.588;7.002;2023-04-24T01:19:42;3.60;;;2.30;;
78336;SDS011;67610;51.588;7.002;2023-04-24T01:22:13;4.53;;;2.40;;
78336;SDS011;67610;51.588;7.002;2023-04-24T01:24:39;4.10;;;2.45;;
78336;SDS011;67610;51.588;7.002;2023-04-24T01:27:05;4.45;;;2.70;;
78336;SDS011;67610;51.588;7.002;2023-04-24T01:29:31;5.07;;;2.67;;
78336;SDS011;67610;51.588;7.002;2023-04-24T01:31:57;4.32;;;2.40;;
78336;SDS011;67610;51.588;7.002;2023-04-24T01:34:23;5.38;;;3.05;;
78336;SDS011;67610;51.588;7.002;2023-04-24T01:36:49;4.88;;;2.70;;
78336;SDS011;67610;51.588;7.002;2023-04-24T01:39:15;4.53;;;2.60;;
78336;SDS011;67610;51.588;7.002;2023-04-24T01:41:41;4.15;;;2.55;;
78336;SDS011;67610;51.588;7.002;2023-04-24T01:44:07;6.88;;;3.10;;
78336;SDS011;67610;51.588;7.002;2023-04-24T01:46:32;6.75;;;3.33;;
78336;SDS011;67610;51.588;7.002;2023-04-24T01:49:00;5.50;;;3.13;;
78336;SDS011;67610;51.588;7.002;2023-04-24T01:51:26;4.88;;;2.83;;
78336;SDS011;67610;51.588;7.002;2023-04-24T01:53:51;5.15;;;3.00;;
78336;SDS011;67610;51.588;7.002;2023-04-24T01:56:18;5.78;;;2.92;;
78336;SDS011;67610;51.588;7.002;2023-04-24T01:58:45;4.70;;;3.20;;
78336;SDS011;67610;51.588;7.002;2023-04-24T02:01:14;6.30;;;3.75;;
78336;SDS011;67610;51.588;7.002;2023-04-24T02:03:43;7.05;;;3.78;;
78336;SDS011;67610;51.588;7.002;2023-04-24T02:06:08;7.10;;;4.57;;
78336;SDS011;67610;51.588;7.002;2023-04-24T02:08:34;8.93;;;4.50;;
78336;SDS011;67610;51.588;7.002;2023-04-24T02:10:59;6.18;;;3.88;;
78336;SDS011;67610;51.588;7.002;2023-04-24T02:13:26;6.47;;;4.05;;
78336;SDS011;67610;51.588;7.002;2023-04-24T02:15:52;7.55;;;3.88;;
78336;SDS011;67610;51.588;7.002;2023-04-24T02:18:17;6.38;;;3.78;;
78336;SDS011;67610;51.588;7.002;2023-04-24T02:20:42;5.82;;;3.80;;
78336;SDS011;67610;51.588;7.002;2023-04-24T02:23:08;6.60;;;3.60;;
78336;SDS011;67610;51.588;7.002;2023-04-24T02:25:33;7.85;;;3.90;;
78336;SDS011;67610;51.588;7.002;2023-04-24T02:27:59;7.93;;;4.00;;
78336;SDS011;67610;51.588;7.002;2023-04-24T02:30:24;7.03;;;4.00;;
78336;SDS011;67610;51.588;7.002;2023-04-24T02:32:50;7.15;;;3.83;;
78336;SDS011;67610;51.588;7.002;2023-04-24T02:35:16;6.10;;;3.80;;
78336;SDS011;67610;51.588;7.002;2023-04-24T02:37:41;6.80;;;4.03;;
78336;SDS011;67610;51.588;7.002;2023-04-24T02:40:07;7.13;;;4.38;;
78336;SDS011;67610;51.588;7.002;2023-04-24T02:42:34;7.57;;;4.40;;
78336;SDS011;67610;51.588;7.002;2023-04-24T02:45:00;8.10;;;4.57;;
78336;SDS011;67610;51.588;7.002;2023-04-24T02:47:25;7.95;;;4.63;;
78336;SDS011;67610;51.588;7.002;2023-04-24T02:49:50;8.48;;;5.15;;
78336;SDS011;67610;51.588;7.002;2023-04-24T02:52:16;8.13;;;5.32;;
78336;SDS011;67610;51.588;7.002;2023-04-24T02:54:42;10.88;;;5.78;;
78336;SDS011;67610;51.588;7.002;2023-04-24T02:57:07;9.90;;;5.88;;
78336;SDS011;67610;51.588;7.002;2023-04-24T02:59:33;11.02;;;5.85;;
78336;SDS011;67610;51.588;7.002;2023-04-24T03:01:59;11.20;;;6.03;;
78336;SDS011;67610;51.588;7.002;2023-04-24T03:04:24;10.95;;;5.70;;
78336;SDS011;67610;51.588;7.002;2023-04-24T03:06:50;16.35;;;6.55;;
78336;SDS011;67610;51.588;7.002;2023-04-24T03:09:18;11.23;;;6.05;;
78336;SDS011;67610;51.588;7.002;2023-04-24T03:11:43;9.75;;;5.80;;
78336;SDS011;67610;51.588;7.002;2023-04-24T03:14:09;11.25;;;6.47;;
78336;SDS011;67610;51.588;7.002;2023-04-24T03:16:34;10.50;;;5.85;;
78336;SDS011;67610;51.588;7.002;2023-04-24T03:19:00;10.23;;;5.90;;
78336;SDS011;67610;51.588;7.002;2023-04-24T03:21:25;13.75;;;6.85;;
78336;SDS011;67610;51.588;7.002;2023-04-24T03:23:51;11.20;;;5.93;;
78336;SDS011;67610;51.588;7.002;2023-04-24T03:26:17;13.55;;;6.85;;
78336;SDS011;67610;51.588;7.002;2023-04-24T03:28:42;9.93;;;6.82;;
78336;SDS011;67610;51.588;7.002;2023-04-24T03:31:07;13.95;;;6.60;;
78336;SDS011;67610;51.588;7.002;2023-04-24T03:33:33;12.07;;;6.35;;
78336;SDS011;67610;51.588;7.002;2023-04-24T03:35:58;13.35;;;6.97;;
78336;SDS011;67610;51.588;7.002;2023-04-24T03:38:24;12.25;;;6.47;;
78336;SDS011;67610;51.588;7.002;2023-04-24T03:40:49;11.05;;;6.50;;
78336;SDS011;67610;51.588;7.002;2023-04-24T03:43:14;11.75;;;7.65;;
78336;SDS011;67610;51.588;7.002;2023-04-24T03:45:40;10.88;;;6.60;;
78336;SDS011;67610;51.588;7.002;2023-04-24T03:48:06;15.05;;;7.30;;
78336;SDS011;67610;51.588;7.002;2023-04-24T03:50:32;13.80;;;7.15;;
78336;SDS011;67610;51.588;7.002;2023-04-24T03:52:58;12.07;;;7.53;;
78336;SDS011;67610;51.588;7.002;2023-04-24T03:55:23;11.60;;;6.60;;
78336;SDS011;67610;51.588;7.002;2023-04-24T03:57:50;11.85;;;6.85;;
78336;SDS011;67610;51.588;7.002;2023-04-24T04:00:15;15.52;;;7.43;;
78336;SDS011;67610;51.588;7.002;2023-04-24T04:02:41;14.90;;;6.55;;
78336;SDS011;67610;51.588;7.002;2023-04-24T04:05:06;10.80;;;6.38;;
78336;SDS011;67610;51.588;7.002;2023-04-24T04:07:33;12.80;;;7.35;;
78336;SDS011;67610;51.588;7.002;2023-04-24T04:09:58;12.63;;;6.75;;
78336;SDS011;67610;51.588;7.002;2023-04-24T04:12:24;16.27;;;7.90;;
78336;SDS011;67610;51.588;7.002;2023-04-24T04:14:49;12.95;;;6.90;;
78336;SDS011;67610;51.588;7.002;2023-04-24T04:17:14;12.00;;;6.68;;
78336;SDS011;67610;51.588;7.002;2023-04-24T04:19:40;12.50;;;6.25;;
78336;SDS011;67610;51.588;7.002;2023-04-24T04:22:05;13.52;;;7.43;;
78336;SDS011;67610;51.588;7.002;2023-04-24T04:24:33;13.65;;;7.05;;
78336;SDS011;67610;51.588;7.002;2023-04-24T04:27:02;14.93;;;7.40;;
78336;SDS011;67610;51.588;7.002;2023-04-24T04:29:30;12.75;;;6.93;;
78336;SDS011;67610;51.588;7.002;2023-04-24T04:31:56;14.75;;;7.07;;
78336;SDS011;67610;51.588;7.002;2023-04-24T04:34:22;13.20;;;6.97;;
78336;SDS011;67610;51.588;7.002;2023-04-24T04:36:48;13.15;;;7.43;;
78336;SDS011;67610;51.588;7.002;2023-04-24T04:39:13;12.82;;;6.82;;
78336;SDS011;67610;51.588;7.002;2023-04-24T04:41:43;12.32;;;7.03;;
78336;SDS011;67610;51.588;7.002;2023-04-24T04:44:09;12.50;;;6.60;;
78336;SDS011;67610;51.588;7.002;2023-04-24T04:46:34;13.20;;;6.68;;
78336;SDS011;67610;51.588;7.002;2023-04-24T04:49:02;11.40;;;6.28;;
78336;SDS011;67610;51.588;7.002;2023-04-24T04:51:27;10.10;;;6.63;;
78336;SDS011;67610;51.588;7.002;2023-04-24T04:53:53;10.40;;;6.55;;
78336;SDS011;67610;51.588;7.002;2023-04-24T04:56:19;11.90;;;6.30;;
78336;SDS011;67610;51.588;7.002;2023-04-24T04:58:44;12.90;;;7.32;;
78336;SDS011;67610;51.588;7.002;2023-04-24T05:01:09;14.63;;;7.00;;
78336;SDS011;67610;51.588;7.002;2023-04-24T05:03:36;12.10;;;6.57;;
78336;SDS011;67610;51.588;7.002;2023-04-24T05:06:02;12.90;;;6.95;;
78336;SDS011;67610;51.588;7.002;2023-04-24T05:08:27;11.05;;;6.28;;
78336;SDS011;67610;51.588;7.002;2023-04-24T05:10:53;10.10;;;5.80;;
78336;SDS011;67610;51.588;7.002;2023-04-24T05:13:20;13.35;;;6.60;;
78336;SDS011;67610;51.588;7.002;2023-04-24T05:15:45;9.57;;;6.50;;
78336;SDS011;67610;51.588;7.002;2023-04-24T05:18:11;10.73;;;5.97;;
78336;SDS011;67610;51.588;7.002;2023-04-24T05:20:36;9.38;;;5.65;;
78336;SDS011;67610;51.588;7.002;2023-04-24T05:23:02;11.52;;;6.50;;
78336;SDS011;67610;51.588;7.002;2023-04-24T05:25:27;13.25;;;6.75;;
78336;SDS011;67610;51.588;7.002;2023-04-24T05:27:53;12.45;;;6.38;;
78336;SDS011;67610;51.588;7.002;2023-04-24T05:30:19;12.38;;;6.40;;
78336;SDS011;67610;51.588;7.002;2023-04-24T05:32:45;9.00;;;5.78;;
78336;SDS011;67610;51.588;7.002;2023-04-24T05:35:11;12.48;;;6.03;;
78336;SDS011;67610;51.588;7.002;2023-04-24T05:37:36;8.93;;;5.03;;
78336;SDS011;67610;51.588;7.002;2023-04-24T05:40:02;10.20;;;6.10;;
78336;SDS011;67610;51.588;7.002;2023-04-24T05:42:30;10.75;;;6.13;;
78336;SDS011;67610;51.588;7.002;2023-04-24T05:44:55;11.05;;;6.30;;
78336;SDS011;67610;51.588;7.002;2023-04-24T05:47:20;12.93;;;6.63;;
78336;SDS011;67610;51.588;7.002;2023-04-24T05:49:47;9.57;;;6.20;;
78336;SDS011;67610;51.588;7.002;2023-04-24T05:52:12;12.35;;;6.65;;
78336;SDS011;67610;51.588;7.002;2023-04-24T05:54:38;10.63;;;6.50;;
78336;SDS011;67610;51.588;7.002;2023-04-24T05:57:03;7.93;;;5.30;;
78336;SDS011;67610;51.588;7.002;2023-04-24T06:01:58;10.20;;;6.13;;
78336;SDS011;67610;51.588;7.002;2023-04-24T06:04:23;9.45;;;6.10;;
78336;SDS011;67610;51.588;7.002;2023-04-24T06:06:48;11.25;;;6.45;;
78336;SDS011;67610;51.588;7.002;2023-04-24T06:09:16;11.13;;;5.75;;
78336;SDS011;67610;51.588;7.002;2023-04-24T06:11:42;9.43;;;5.88;;
78336;SDS011;67610;51.588;7.002;2023-04-24T06:14:08;10.13;;;5.72;;
78336;SDS011;67610;51.588;7.002;2023-04-24T06:16:33;9.93;;;6.05;;
78336;SDS011;67610;51.588;7.002;2023-04-24T06:18:59;9.48;;;5.95;;
78336;SDS011;67610;51.588;7.002;2023-04-24T06:21:24;9.68;;;6.22;;
78336;SDS011;67610;51.588;7.002;2023-04-24T06:23:50;11.05;;;6.45;;
78336;SDS011;67610;51.588;7.002;2023-04-24T06:26:16;9.73;;;6.40;;
78336;SDS011;67610;51.588;7.002;2023-04-24T06:28:41;9.93;;;6.28;;
78336;SDS011;67610;51.588;7.002;2023-04-24T06:31:07;11.07;;;6.10;;
78336;SDS011;67610;51.588;7.002;2023-04-24T06:33:32;9.20;;;6.18;;
78336;SDS011;67610;51.588;7.002;2023-04-24T06:35:57;11.05;;;5.90;;
78336;SDS011;67610;51.588;7.002;2023-04-24T06:38:23;11.30;;;6.43;;
78336;SDS011;67610;51.588;7.002;2023-04-24T06:40:48;10.07;;;6.28;;
78336;SDS011;67610;51.588;7.002;2023-04-24T06:43:14;11.23;;;5.80;;
78336;SDS011;67610;51.588;7.002;2023-04-24T06:45:40;11.60;;;6.40;;
78336;SDS011;67610;51.588;7.002;2023-04-24T06:48:05;11.13;;;5.43;;
78336;SDS011;67610;51.588;7.002;2023-04-24T06:50:30;11.98;;;5.95;;
78336;SDS011;67610;51.588;7.002;2023-04-24T06:52:56;10.70;;;5.78;;
78336;SDS011;67610;51.588;7.002;2023-04-24T06:55:21;12.18;;;5.75;;
78336;SDS011;67610;51.588;7.002;2023-04-24T06:57:48;14.43;;;6.65;;
78336;SDS011;67610;51.588;7.002;2023-04-24T07:00:14;11.60;;;5.88;;
78336;SDS011;67610;51.588;7.002;2023-04-24T07:02:39;12.55;;;6.00;;
78336;SDS011;67610;51.588;7.002;2023-04-24T07:05:05;13.57;;;5.25;;
78336;SDS011;67610;51.588;7.002;2023-04-24T07:07:30;8.30;;;5.03;;
78336;SDS011;67610;51.588;7.002;2023-04-24T07:09:56;9.60;;;4.93;;
78336;SDS011;67610;51.588;7.002;2023-04-24T07:12:22;9.40;;;4.95;;
78336;SDS011;67610;51.588;7.002;2023-04-24T07:14:48;9.38;;;4.50;;
78336;SDS011;67610;51.588;7.002;2023-04-24T07:17:13;9.30;;;4.95;;
78336;SDS011;67610;51.588;7.002;2023-04-24T07:19:39;11.68;;;4.95;;
78336;SDS011;67610;51.588;7.002;2023-04-24T07:22:05;11.52;;;5.15;;
78336;SDS011;67610;51.588;7.002;2023-04-24T07:24:31;8.60;;;5.35;;
78336;SDS011;67610;51.588;7.002;2023-04-24T07:26:59;9.02;;;4.90;;
78336;SDS011;67610;51.588;7.002;2023-04-24T07:29:26;7.38;;;4.40;;
78336;SDS011;67610;51.588;7.002;2023-04-24T07:31:51;8.85;;;4.30;;
78336;SDS011;67610;51.588;7.002;2023-04-24T07:34:19;7.20;;;4.18;;
78336;SDS011;67610;51.588;7.002;2023-04-24T07:36:45;8.13;;;4.75;;
78336;SDS011;67610;51.588;7.002;2023-04-24T07:39:11;9.05;;;3.92;;
78336;SDS011;67610;51.588;7.002;2023-04-24T07:41:36;8.05;;;4.10;;
78336;SDS011;67610;51.588;7.002;2023-04-24T07:44:01;8.07;;;3.63;;
78336;SDS011;67610;51.588;7.002;2023-04-24T07:46:27;8.63;;;3.60;;
78336;SDS011;67610;51.588;7.002;2023-04-24T07:48:54;7.20;;;3.38;;
78336;SDS011;67610;51.588;7.002;2023-04-24T07:51:20;5.55;;;2.58;;
78336;SDS011;67610;51.588;7.002;2023-04-24T07:53:45;4.88;;;2.42;;
78336;SDS011;67610;51.588;7.002;2023-04-24T07:56:11;6.53;;;2.38;;
78336;SDS011;67610;51.588;7.002;2023-04-24T07:58:36;6.10;;;2.50;;
78336;SDS011;67610;51.588;7.002;2023-04-24T08:01:02;7.40;;;2.33;;
78336;SDS011;67610;51.588;7.002;2023-04-24T08:03:27;4.70;;;2.00;;
78336;SDS011;67610;51.588;7.002;2023-04-24T08:05:54;5.75;;;1.98;;
78336;SDS011;67610;51.588;7.002;2023-04-24T08:08:21;5.20;;;1.95;;
78336;SDS011;67610;51.588;7.002;2023-04-24T08:10:47;4.72;;;2.28;;
78336;SDS011;67610;51.588;7.002;2023-04-24T08:13:13;5.70;;;2.15;;
78336;SDS011;67610;51.588;7.002;2023-04-24T08:15:38;4.85;;;1.98;;
78336;SDS011;67610;51.588;7.002;2023-04-24T08:18:04;5.00;;;2.40;;
78336;SDS011;67610;51.588;7.002;2023-04-24T08:20:29;7.82;;;2.67;;
78336;SDS011;67610;51.588;7.002;2023-04-24T08:22:55;7.28;;;2.58;;
78336;SDS011;67610;51.588;7.002;2023-04-24T08:25:21;5.72;;;2.65;;
78336;SDS011;67610;51.588;7.002;2023-04-24T08:27:48;4.93;;;2.10;;
78336;SDS011;67610;51.588;7.002;2023-04-24T08:30:13;9.27;;;2.72;;
78336;SDS011;67610;51.588;7.002;2023-04-24T08:32:39;6.90;;;2.75;;
78336;SDS011;67610;51.588;7.002;2023-04-24T08:35:06;4.38;;;2.38;;
78336;SDS011;67610;51.588;7.002;2023-04-24T08:37:34;7.30;;;2.40;;
78336;SDS011;67610;51.588;7.002;2023-04-24T08:39:59;4.20;;;2.08;;
78336;SDS011;67610;51.588;7.002;2023-04-24T08:42:25;3.70;;;2.30;;
78336;SDS011;67610;51.588;7.002;2023-04-24T08:44:53;6.10;;;2.45;;
78336;SDS011;67610;51.588;7.002;2023-04-24T08:47:19;3.83;;;2.60;;
78336;SDS011;67610;51.588;7.002;2023-04-24T08:49:46;5.97;;;2.70;;
78336;SDS011;67610;51.588;7.002;2023-04-24T08:52:13;5.93;;;3.08;;
78336;SDS011;67610;51.588;7.002;2023-04-24T08:54:38;4.18;;;3.08;;
78336;SDS011;67610;51.588;7.002;2023-04-24T08:57:05;4.93;;;2.92;;
78336;SDS011;67610;51.588;7.002;2023-04-24T08:59:32;5.03;;;3.00;;
78336;SDS011;67610;51.588;7.002;2023-04-24T09:02:00;3.35;;;2.33;;
78336;SDS011;67610;51.588;7.002;2023-04-24T09:04:28;2.88;;;2.00;;
78336;SDS011;67610;51.588;7.002;2023-04-24T09:06:55;2.90;;;1.88;;
78336;SDS011;67610;51.588;7.002;2023-04-24T09:09:22;3.05;;;1.65;;
78336;SDS011;67610;51.588;7.002;2023-04-24T09:11:48;2.50;;;1.70;;
78336;SDS011;67610;51.588;7.002;2023-04-24T09:14:15;2.50;;;1.60;;
78336;SDS011;67610;51.588;7.002;2023-04-24T09:16:43;2.63;;;1.73;;
78336;SDS011;67610;51.588;7.002;2023-04-24T09:19:09;3.28;;;1.52;;
78336;SDS011;67610;51.588;7.002;2023-04-24T09:21:36;2.17;;;1.60;;
78336;SDS011;67610;51.588;7.002;2023-04-24T09:24:05;3.00;;;2.35;;
78336;SDS011;67610;51.588;7.002;2023-04-24T09:26:34;2.17;;;1.50;;
78336;SDS011;67610;51.588;7.002;2023-04-24T09:29:01;2.47;;;1.40;;
78336;SDS011;67610;51.588;7.002;2023-04-24T09:31:27;2.53;;;1.58;;
78336;SDS011;67610;51.588;7.002;2023-04-24T09:36:26;1.95;;;1.40;;
78336;SDS011;67610;51.588;7.002;2023-04-24T09:39:06;3.90;;;1.85;;
78336;SDS011;67610;51.588;7.002;2023-04-24T09:44:23;5.15;;;2.60;;
78336;SDS011;67610;51.588;7.002;2023-04-24T09:46:58;5.78;;;2.65;;
78336;SDS011;67610;51.588;7.002;2023-04-24T09:49:28;4.90;;;3.10;;
78336;SDS011;67610;51.588;7.002;2023-04-24T09:52:05;6.55;;;3.67;;
78336;SDS011;67610;51.588;7.002;2023-04-24T09:54:32;8.00;;;3.28;;
78336;SDS011;67610;51.588;7.002;2023-04-24T09:56:58;6.80;;;3.22;;
78336;SDS011;67610;51.588;7.002;2023-04-24T09:59:25;6.38;;;3.70;;
78336;SDS011;67610;51.588;7.002;2023-04-24T10:01:50;4.63;;;3.08;;
78336;SDS011;67610;51.588;7.002;2023-04-24T10:06:47;5.30;;;3.28;;
78336;SDS011;67610;51.588;7.002;2023-04-24T10:09:23;5.57;;;3.45;;
78336;SDS011;67610;51.588;7.002;2023-04-24T10:11:50;6.88;;;3.20;;
78336;SDS011;67610;51.588;7.002;2023-04-24T10:14:19;6.97;;;3.70;;
78336;SDS011;67610;51.588;7.002;2023-04-24T10:16:46;6.68;;;3.50;;
78336;SDS011;67610;51.588;7.002;2023-04-24T10:19:12;7.35;;;3.40;;
78336;SDS011;67610;51.588;7.002;2023-04-24T10:21:40;8.10;;;4.00;;
78336;SDS011;67610;51.588;7.002;2023-04-24T10:24:14;6.30;;;4.22;;
78336;SDS011;67610;51.588;7.002;2023-04-24T10:26:42;13.23;;;6.47;;
78336;SDS011;67610;51.588;7.002;2023-04-24T10:29:08;12.43;;;6.70;;
78336;SDS011;67610;51.588;7.002;2023-04-24T10:31:40;8.60;;;5.80;;
78336;SDS011;67610;51.588;7.002;2023-04-24T10:34:07;5.75;;;3.60;;
78336;SDS011;67610;51.588;7.002;2023-04-24T10:36:35;7.18;;;4.03;;
78336;SDS011;67610;51.588;7.002;2023-04-24T10:39:05;10.05;;;3.70;;
78336;SDS011;67610;51.588;7.002;2023-04-24T10:41:36;6.32;;;3.45;;
78336;SDS011;67610;51.588;7.002;2023-04-24T10:46:38;6.80;;;3.63;;
78336;SDS011;67610;51.588;7.002;2023-04-24T10:49:08;5.47;;;3.40;;
78336;SDS011;67610;51.588;7.002;2023-04-24T10:51:53;6.38;;;3.20;;
78336;SDS011;67610;51.588;7.002;2023-04-24T10:54:29;8.18;;;3.13;;
78336;SDS011;67610;51.588;7.002;2023-04-24T10:59:44;7.20;;;3.30;;
78336;SDS011;67610;51.588;7.002;2023-04-24T11:02:10;16.58;;;3.97;;
78336;SDS011;67610;51.588;7.002;2023-04-24T11:04:39;8.35;;;3.78;;
78336;SDS011;67610;51.588;7.002;2023-04-24T11:07:04;8.07;;;3.17;;
78336;SDS011;67610;51.588;7.002;2023-04-24T11:09:30;9.13;;;3.80;;
78336;SDS011;67610;51.588;7.002;2023-04-24T11:12:06;7.57;;;3.33;;
78336;SDS011;67610;51.588;7.002;2023-04-24T11:17:44;10.63;;;3.83;;
78336;SDS011;67610;51.588;7.002;2023-04-24T11:20:11;6.82;;;3.22;;
78336;SDS011;67610;51.588;7.002;2023-04-24T11:22:37;8.07;;;3.33;;
78336;SDS011;67610;51.588;7.002;2023-04-24T11:25:05;8.45;;;3.22;;
78336;SDS011;67610;51.588;7.002;2023-04-24T11:27:39;11.30;;;3.63;;
78336;SDS011;67610;51.588;7.002;2023-04-24T11:30:06;6.50;;;3.00;;
78336;SDS011;67610;51.588;7.002;2023-04-24T11:35:00;8.48;;;3.20;;
78336;SDS011;67610;51.588;7.002;2023-04-24T11:37:33;7.38;;;3.30;;
78336;SDS011;67610;51.588;7.002;2023-04-24T11:40:06;7.07;;;3.10;;
78336;SDS011;67610;51.588;7.002;2023-04-24T11:42:34;7.40;;;3.00;;
78336;SDS011;67610;51.588;7.002;2023-04-24T11:45:00;8.45;;;3.20;;
78336;SDS011;67610;51.588;7.002;2023-04-24T11:47:30;7.40;;;3.05;;
78336;SDS011;67610;51.588;7.002;2023-04-24T11:49:57;7.18;;;2.72;;
78336;SDS011;67610;51.588;7.002;2023-04-24T11:52:23;5.55;;;2.75;;
78336;SDS011;67610;51.588;7.002;2023-04-24T11:54:49;5.93;;;2.60;;
78336;SDS011;67610;51.588;7.002;2023-04-24T11:57:15;7.22;;;2.92;;
78336;SDS011;67610;51.588;7.002;2023-04-24T11:59:41;6.85;;;2.70;;
78336;SDS011;67610;51.588;7.002;2023-04-24T12:02:07;11.02;;;2.95;;
78336;SDS011;67610;51.588;7.002;2023-04-24T12:04:41;8.85;;;3.38;;
78336;SDS011;67610;51.588;7.002;2023-04-24T12:07:08;5.78;;;2.40;;
78336;SDS011;67610;51.588;7.002;2023-04-24T12:09:40;8.32;;;3.00;;
78336;SDS011;67610;51.588;7.002;2023-04-24T12:12:11;5.43;;;2.55;;
78336;SDS011;67610;51.588;7.002;2023-04-24T12:14:50;7.97;;;2.85;;
78336;SDS011;67610;51.588;7.002;2023-04-24T12:17:23;7.55;;;3.05;;
78336;SDS011;67610;51.588;7.002;2023-04-24T12:20:01;6.60;;;2.67;;
78336;SDS011;67610;51.588;7.002;2023-04-24T12:25:11;7.35;;;2.38;;
78336;SDS011;67610;51.588;7.002;2023-04-24T12:27:37;5.38;;;2.55;;
78336;SDS011;67610;51.588;7.002;2023-04-24T12:30:03;6.13;;;2.40;;
78336;SDS011;67610;51.588;7.002;2023-04-24T12:32:30;6.45;;;2.33;;
78336;SDS011;67610;51.588;7.002;2023-04-24T12:34:56;5.88;;;2.47;;
78336;SDS011;67610;51.588;7.002;2023-04-24T12:37:26;6.28;;;2.70;;
78336;SDS011;67610;51.588;7.002;2023-04-24T12:40:04;5.47;;;2.45;;
78336;SDS011;67610;51.588;7.002;2023-04-24T12:42:35;4.60;;;2.30;;
78336;SDS011;67610;51.588;7.002;2023-04-24T12:45:06;6.45;;;2.80;;
78336;SDS011;67610;51.588;7.002;2023-04-24T12:47:33;5.65;;;2.90;;
78336;SDS011;67610;51.588;7.002;2023-04-24T12:49:59;4.15;;;2.65;;
78336;SDS011;67610;51.588;7.002;2023-04-24T12:52:26;16.33;;;4.60;;
78336;SDS011;67610;51.588;7.002;2023-04-24T12:54:54;5.07;;;2.90;;
78336;SDS011;67610;51.588;7.002;2023-04-24T12:57:20;3.67;;;2.47;;
78336;SDS011;67610;51.588;7.002;2023-04-24T12:59:49;6.38;;;2.70;;
78336;SDS011;67610;51.588;7.002;2023-04-24T13:02:15;4.78;;;2.30;;
78336;SDS011;67610;51.588;7.002;2023-04-24T13:04:44;4.35;;;2.30;;
78336;SDS011;67610;51.588;7.002;2023-04-24T13:07:11;3.45;;;1.90;;
78336;SDS011;67610;51.588;7.002;2023-04-24T13:09:38;4.22;;;2.28;;
78336;SDS011;67610;51.588;7.002;2023-04-24T13:12:04;4.50;;;2.13;;
78336;SDS011;67610;51.588;7.002;2023-04-24T13:14:30;4.28;;;1.95;;
78336;SDS011;67610;51.588;7.002;2023-04-24T13:16:56;4.70;;;2.15;;
78336;SDS011;67610;51.588;7.002;2023-04-24T13:19:23;3.83;;;1.80;;
78336;SDS011;67610;51.588;7.002;2023-04-24T13:21:51;5.80;;;2.03;;
78336;SDS011;67610;51.588;7.002;2023-04-24T13:24:16;6.63;;;2.35;;
78336;SDS011;67610;51.588;7.002;2023-04-24T13:26:42;5.35;;;2.08;;
78336;SDS011;67610;51.588;7.002;2023-04-24T13:29:07;4.55;;;2.30;;
78336;SDS011;67610;51.588;7.002;2023-04-24T13:31:33;3.58;;;2.15;;
78336;SDS011;67610;51.588;7.002;2023-04-24T13:33:58;4.85;;;2.20;;
78336;SDS011;67610;51.588;7.002;2023-04-24T13:36:24;4.30;;;2.10;;
78336;SDS011;67610;51.588;7.002;2023-04-24T13:38:49;5.35;;;2.10;;
78336;SDS011;67610;51.588;7.002;2023-04-24T13:41:14;4.00;;;2.15;;
78336;SDS011;67610;51.588;7.002;2023-04-24T13:43:40;3.63;;;1.80;;
78336;SDS011;67610;51.588;7.002;2023-04-24T13:46:07;3.25;;;2.00;;
78336;SDS011;67610;51.588;7.002;2023-04-24T13:48:33;2.97;;;2.05;;
78336;SDS011;67610;51.588;7.002;2023-04-24T13:50:58;4.00;;;1.98;;
78336;SDS011;67610;51.588;7.002;2023-04-24T13:53:24;3.92;;;2.13;;
78336;SDS011;67610;51.588;7.002;2023-04-24T13:55:49;3.75;;;2.00;;
78336;SDS011;67610;51.588;7.002;2023-04-24T13:58:14;3.50;;;2.10;;
78336;SDS011;67610;51.588;7.002;2023-04-24T14:00:40;4.25;;;2.25;;
78336;SDS011;67610;51.588;7.002;2023-04-24T14:03:05;3.67;;;2.10;;
78336;SDS011;67610;51.588;7.002;2023-04-24T14:05:31;4.15;;;1.95;;
78336;SDS011;67610;51.588;7.002;2023-04-24T14:07:56;4.68;;;2.35;;
78336;SDS011;67610;51.588;7.002;2023-04-24T14:10:22;3.78;;;2.30;;
78336;SDS011;67610;51.588;7.002;2023-04-24T14:12:47;4.90;;;2.22;;
78336;SDS011;67610;51.588;7.002;2023-04-24T14:15:13;4.90;;;2.60;;
78336;SDS011;67610;51.588;7.002;2023-04-24T14:17:38;4.28;;;2.00;;
78336;SDS011;67610;51.588;7.002;2023-04-24T14:20:04;3.30;;;2.20;;
78336;SDS011;67610;51.588;7.002;2023-04-24T14:22:30;4.18;;;2.22;;
78336;SDS011;67610;51.588;7.002;2023-04-24T14:24:57;3.40;;;2.00;;
78336;SDS011;67610;51.588;7.002;2023-04-24T14:27:22;3.55;;;2.10;;
78336;SDS011;67610;51.588;7.002;2023-04-24T14:29:48;5.35;;;2.08;;
78336;SDS011;67610;51.588;7.002;2023-04-24T14:32:13;6.82;;;2.03;;
78336;SDS011;67610;51.588;7.002;2023-04-24T14:34:40;7.05;;;2.60;;
78336;SDS011;67610;51.588;7.002;2023-04-24T14:37:05;4.43;;;2.22;;
78336;SDS011;67610;51.588;7.002;2023-04-24T14:39:31;3.92;;;2.40;;
78336;SDS011;67610;51.588;7.002;2023-04-24T14:41:56;4.25;;;2.47;;
78336;SDS011;67610;51.588;7.002;2023-04-24T14:44:21;5.88;;;2.53;;
78336;SDS011;67610;51.588;7.002;2023-04-24T14:46:48;5.07;;;2.33;;
78336;SDS011;67610;51.588;7.002;2023-04-24T14:49:14;4.03;;;1.95;;
78336;SDS011;67610;51.588;7.002;2023-04-24T14:51:39;4.50;;;2.10;;
78336;SDS011;67610;51.588;7.002;2023-04-24T14:54:05;4.97;;;2.25;;
78336;SDS011;67610;51.588;7.002;2023-04-24T14:56:31;4.38;;;2.33;;
78336;SDS011;67610;51.588;7.002;2023-04-24T14:58:56;4.63;;;3.13;;
78336;SDS011;67610;51.588;7.002;2023-04-24T15:01:22;4.82;;;2.42;;
78336;SDS011;67610;51.588;7.002;2023-04-24T15:03:49;5.97;;;2.40;;